Terminal Aerodrome Forecast
Issued by NWS

Home | Current Version | Previous Version | Text Only | Print | Product List | Glossary On
Versions: 1 2 3 4 5 6 7 8 9 10 11 12 13 14 15 16 17 18
000
FTUS45 KABQ 041100 RRA
TAFGUP
TAF
KGUP 041144Z 0412/0512 05007KT P6SM VCSH BKN080
     FM041600 15006KT P6SM VCSH BKN060 BKN100
     FM041700 22012G18KT P6SM VCTS BKN050CB
      TEMPO 0420/0424 -TSRA OVC035CB
     FM050200 26010KT 5SM -SHRA BR BKN025=

USA.gov is the U.S. government's official web portal to all federal, state and local government web resources and services.